createdAt,value
2023-05-16T00:00:22.411Z,98027.50
2023-05-16T00:03:12.388Z,98030.25
2023-05-16T00:05:39.580Z,98023.31
2023-05-16T00:08:06.894Z,98030.31
2023-05-16T00:10:33.929Z,98030.38
2023-05-16T00:13:29.832Z,98035.44
2023-05-16T00:15:57.071Z,98038.19
2023-05-16T00:18:26.246Z,98037.91
2023-05-16T00:20:54.776Z,98026.91
2023-05-16T00:23:22.245Z,98029.13
2023-05-16T00:25:49.611Z,98033.53
2023-05-16T00:28:17.131Z,98030.47
2023-05-16T00:30:44.428Z,98035.84
2023-05-16T00:33:13.024Z,98037.63
2023-05-16T00:35:39.977Z,98034.75
2023-05-16T00:38:07.580Z,98037.00
2023-05-16T00:40:34.470Z,98036.88
2023-05-16T00:43:01.885Z,98043.38
2023-05-16T00:45:29.230Z,98040.13
2023-05-16T00:47:56.562Z,98042.75
2023-05-16T00:50:23.614Z,98049.91
2023-05-16T00:52:51.087Z,98058.03
2023-05-16T00:55:18.170Z,98052.88
2023-05-16T00:57:45.485Z,98049.69
2023-05-16T01:00:13.154Z,98053.66
2023-05-16T01:02:40.708Z,98050.19
2023-05-16T01:05:10.981Z,98038.84
2023-05-16T01:07:38.608Z,98033.72
2023-05-16T01:10:06.781Z,98027.53
2023-05-16T01:12:54.428Z,98027.22
2023-05-16T01:15:29.378Z,98021.97
2023-05-16T01:18:15.935Z,98030.38
2023-05-16T01:21:05.109Z,98027.41
2023-05-16T01:23:57.640Z,98029.03
2023-05-16T01:26:28.729Z,98036.69
2023-05-16T01:28:56.305Z,98038.50
2023-05-16T01:31:24.383Z,98042.97
2023-05-16T01:33:52.138Z,98040.41
2023-05-16T01:36:53.494Z,98034.84
2023-05-16T01:39:30.934Z,98033.34
2023-05-16T01:42:19.466Z,98028.69
2023-05-16T01:45:08.833Z,98031.19
2023-05-16T01:47:40.744Z,98026.09
2023-05-16T01:50:14.933Z,98024.94
2023-05-16T01:52:48.161Z,98016.78
2023-05-16T01:55:19.180Z,98014.94
2023-05-16T01:57:46.482Z,98022.00
2023-05-16T02:00:14.127Z,98029.34
2023-05-16T02:02:41.172Z,98027.81
2023-05-16T02:05:08.623Z,98030.75
2023-05-16T02:07:35.650Z,98026.78
2023-05-16T02:10:03.181Z,98024.81
2023-05-16T02:12:30.042Z,98028.69
2023-05-16T02:14:57.405Z,98021.78
2023-05-16T02:17:24.385Z,98022.50
2023-05-16T02:19:51.777Z,98025.94
2023-05-16T02:22:18.973Z,98035.06
2023-05-16T02:24:46.168Z,98034.53
2023-05-16T02:27:13.161Z,98031.22
2023-05-16T02:29:40.868Z,98033.44
2023-05-16T02:32:08.290Z,98031.06
2023-05-16T02:34:35.522Z,98035.50
2023-05-16T02:37:02.494Z,98042.56
2023-05-16T02:39:30.174Z,98032.59
2023-05-16T02:41:57.492Z,98031.78
2023-05-16T02:44:24.873Z,98031.47
2023-05-16T02:46:52.151Z,98030.06
2023-05-16T02:49:19.423Z,98040.19
2023-05-16T02:51:46.899Z,98034.50
2023-05-16T02:54:14.139Z,98035.56
2023-05-16T02:56:41.038Z,98035.94
2023-05-16T02:59:09.067Z,98033.81
2023-05-16T03:01:36.047Z,98028.78
2023-05-16T03:04:03.689Z,98046.66
2023-05-16T03:06:30.706Z,98049.94
2023-05-16T03:08:58.035Z,98042.94
2023-05-16T03:11:26.111Z,98043.81
2023-05-16T03:13:53.382Z,98046.50
2023-05-16T03:16:20.429Z,98042.16
2023-05-16T03:18:48.202Z,98037.75
2023-05-16T03:21:15.324Z,98042.50
2023-05-16T03:23:43.590Z,98049.06
2023-05-16T03:26:10.741Z,98046.63
2023-05-16T03:28:38.226Z,98048.97
2023-05-16T03:31:05.285Z,98045.09
2023-05-16T03:33:32.894Z,98053.56
2023-05-16T03:35:59.816Z,98050.38
2023-05-16T03:38:27.183Z,98050.84
2023-05-16T03:40:54.368Z,98057.91
2023-05-16T03:43:21.849Z,98060.97
2023-05-16T03:45:48.964Z,98058.75
2023-05-16T03:48:16.468Z,98058.16
2023-05-16T03:50:43.537Z,98061.13
2023-05-16T03:53:11.107Z,98050.13
2023-05-16T03:55:38.208Z,98051.84
2023-05-16T03:58:05.676Z,98060.81
2023-05-16T04:00:34.606Z,98058.53
2023-05-16T04:03:01.765Z,98059.28
2023-05-16T04:05:29.566Z,98065.97
2023-05-16T04:07:57.318Z,98067.19
2023-05-16T04:10:24.916Z,98074.75
2023-05-16T04:12:52.223Z,98074.41
2023-05-16T04:15:19.335Z,98076.50
2023-05-16T04:17:47.041Z,98076.44
2023-05-16T04:20:14.168Z,98083.25
2023-05-16T04:22:42.010Z,98086.41
2023-05-16T04:25:09.503Z,98095.84
2023-05-16T04:27:36.945Z,98092.03
2023-05-16T04:30:04.403Z,98091.16
2023-05-16T04:32:34.733Z,98095.34
2023-05-16T04:35:02.028Z,98101.78
2023-05-16T04:37:29.334Z,98096.00
2023-05-16T04:39:56.265Z,98105.78
2023-05-16T04:42:24.380Z,98101.66
2023-05-16T04:44:51.274Z,98103.94
2023-05-16T04:47:18.801Z,98104.41
2023-05-16T04:49:45.856Z,98109.91
2023-05-16T04:52:13.342Z,98116.69
2023-05-16T04:54:40.397Z,98123.50
2023-05-16T04:57:07.850Z,98124.97
2023-05-16T04:59:35.001Z,98126.97
2023-05-16T05:02:02.286Z,98129.38
2023-05-16T05:04:29.408Z,98131.22
2023-05-16T05:06:56.843Z,98122.59
2023-05-16T05:09:23.908Z,98129.84
2023-05-16T05:11:51.341Z,98133.22
2023-05-16T05:14:18.784Z,98122.28
2023-05-16T05:16:46.142Z,98123.47
2023-05-16T05:19:13.116Z,98119.00
2023-05-16T05:21:40.686Z,98111.56
2023-05-16T05:24:07.749Z,98108.75
2023-05-16T05:26:35.166Z,98115.97
2023-05-16T05:29:05.734Z,98121.47
2023-05-16T05:31:35.209Z,98116.25
2023-05-16T05:34:03.325Z,98114.69
2023-05-16T05:36:31.474Z,98123.00
2023-05-16T05:38:58.651Z,98119.66
2023-05-16T05:41:26.971Z,98129.25
2023-05-16T05:43:54.302Z,98133.63
2023-05-16T05:46:21.734Z,98136.03
2023-05-16T05:48:48.882Z,98124.06
2023-05-16T05:51:16.447Z,98126.88
2023-05-16T05:53:44.407Z,98132.91
2023-05-16T05:56:11.844Z,98129.53
2023-05-16T05:58:39.564Z,98130.41
2023-05-16T06:01:06.812Z,98133.94
2023-05-16T06:03:34.000Z,98139.41
2023-05-16T06:06:01.411Z,98141.94
2023-05-16T06:08:28.406Z,98140.47
2023-05-16T06:10:55.947Z,98146.28
2023-05-16T06:13:22.903Z,98137.81
2023-05-16T06:15:54.066Z,98138.56
2023-05-16T06:18:21.587Z,98138.03
2023-05-16T06:20:49.009Z,98135.84
2023-05-16T06:23:16.290Z,98139.97
2023-05-16T06:25:43.698Z,98138.78
2023-05-16T06:28:10.657Z,98144.41
2023-05-16T06:30:37.941Z,98141.06
2023-05-16T06:33:06.075Z,98141.34
2023-05-16T06:35:33.331Z,98151.91
2023-05-16T06:38:00.573Z,98145.34
2023-05-16T06:40:28.205Z,98146.41
2023-05-16T06:42:55.300Z,98145.41
2023-05-16T06:45:22.731Z,98141.81
2023-05-16T06:47:50.059Z,98139.84
2023-05-16T06:50:17.448Z,98140.56
2023-05-16T06:52:44.780Z,98145.81
2023-05-16T06:55:12.673Z,98148.63
2023-05-16T06:57:39.735Z,98155.63
2023-05-16T07:00:08.481Z,98147.72
2023-05-16T07:02:35.990Z,98153.47
2023-05-16T07:05:03.920Z,98160.38
2023-05-16T07:07:31.304Z,98164.78
2023-05-16T07:09:58.990Z,98168.56
2023-05-16T07:12:26.865Z,98170.19
2023-05-16T07:14:54.211Z,98166.94
2023-05-16T07:17:21.330Z,98163.03
2023-05-16T07:19:48.685Z,98167.06
2023-05-16T07:22:15.880Z,98164.56
2023-05-16T07:24:43.503Z,98170.13
2023-05-16T07:27:10.923Z,98167.31
2023-05-16T07:29:39.215Z,98167.53
2023-05-16T07:32:06.976Z,98169.66
2023-05-16T07:34:34.314Z,98166.63
2023-05-16T07:37:01.577Z,98169.59
2023-05-16T07:39:29.290Z,98177.31
2023-05-16T07:41:56.936Z,98192.50
2023-05-16T07:44:24.426Z,98204.06
2023-05-16T07:46:51.914Z,98210.25
2023-05-16T07:49:19.476Z,98223.84
2023-05-16T07:51:47.377Z,98215.19
2023-05-16T07:54:15.100Z,98209.06
2023-05-16T07:56:42.126Z,98200.47
2023-05-16T07:59:09.987Z,98190.56
2023-05-16T08:01:37.587Z,98195.59
2023-05-16T08:04:05.218Z,98186.59
2023-05-16T08:06:32.407Z,98188.03
2023-05-16T08:09:00.071Z,98206.56
2023-05-16T08:11:27.359Z,98194.31
2023-05-16T08:13:54.629Z,98200.94
2023-05-16T08:16:21.911Z,98203.63
2023-05-16T08:18:49.372Z,98210.91
2023-05-16T08:21:16.911Z,98215.59
2023-05-16T08:23:44.366Z,98224.19
2023-05-16T08:26:11.362Z,98217.78
2023-05-16T08:28:38.663Z,98222.66
2023-05-16T08:31:06.044Z,98232.09
2023-05-16T08:33:33.310Z,98225.50
2023-05-16T08:36:01.297Z,98211.38
2023-05-16T08:38:29.530Z,98206.91
2023-05-16T08:40:56.781Z,98199.13
2023-05-16T08:43:24.201Z,98191.13
2023-05-16T08:45:51.519Z,98194.66
2023-05-16T08:48:23.309Z,98197.53
2023-05-16T08:50:50.416Z,98200.78
2023-05-16T08:53:22.455Z,98202.19
2023-05-16T08:55:50.254Z,98198.09
2023-05-16T08:58:18.096Z,98199.72
2023-05-16T09:00:45.909Z,98210.19
2023-05-16T09:03:13.811Z,98206.19
2023-05-16T09:05:41.356Z,98209.13
2023-05-16T09:08:08.843Z,98201.06
2023-05-16T09:10:36.040Z,98203.66
2023-05-16T09:13:04.555Z,98198.13
2023-05-16T09:15:32.915Z,98197.47
2023-05-16T09:18:03.696Z,98198.78
2023-05-16T09:20:31.527Z,98187.06
2023-05-16T09:23:00.541Z,98193.56
2023-05-16T09:25:31.407Z,98201.97
2023-05-16T09:28:02.482Z,98193.25
2023-05-16T09:30:34.822Z,98190.66
2023-05-16T09:33:03.246Z,98197.47
2023-05-16T09:35:44.137Z,98203.06
2023-05-16T09:38:17.651Z,98194.06
2023-05-16T09:40:45.308Z,98204.75
2023-05-16T09:43:16.983Z,98202.50
2023-05-16T09:45:49.089Z,98198.44
2023-05-16T09:48:18.357Z,98205.50
2023-05-16T09:50:54.393Z,98197.69
2023-05-16T09:53:27.827Z,98193.78
2023-05-16T09:56:06.085Z,98181.09
2023-05-16T09:58:35.189Z,98191.81
2023-05-16T10:01:02.972Z,98189.63
2023-05-16T10:03:30.637Z,98186.38
2023-05-16T10:05:57.823Z,98188.91
2023-05-16T10:08:27.130Z,98195.44
2023-05-16T10:10:56.099Z,98184.69
2023-05-16T10:13:34.780Z,98187.63
2023-05-16T10:16:15.378Z,98178.75
2023-05-16T10:18:43.078Z,98170.53
2023-05-16T10:21:17.522Z,98178.34
2023-05-16T10:23:48.741Z,98173.13
2023-05-16T10:26:17.552Z,98177.56
2023-05-16T10:28:46.085Z,98167.09
2023-05-16T10:31:15.084Z,98172.97
2023-05-16T10:33:42.896Z,98167.66
2023-05-16T10:36:11.179Z,98176.91
2023-05-16T10:38:39.502Z,98182.25
2023-05-16T10:41:07.544Z,98175.53
2023-05-16T10:43:35.839Z,98178.72
2023-05-16T10:46:04.801Z,98182.94
2023-05-16T10:48:34.459Z,98173.28
2023-05-16T10:51:03.450Z,98170.72
2023-05-16T10:53:37.865Z,98174.41
2023-05-16T10:56:07.508Z,98164.72
2023-05-16T10:58:41.019Z,98176.31
2023-05-16T11:01:30.817Z,98166.59
2023-05-16T11:03:58.418Z,98166.59
2023-05-16T11:06:29.469Z,98160.63
2023-05-16T11:09:06.219Z,98153.13
2023-05-16T11:12:08.582Z,98160.41
2023-05-16T11:14:39.616Z,98158.53
2023-05-16T11:17:12.175Z,98155.81
2023-05-16T11:19:43.732Z,98153.34
2023-05-16T11:22:20.060Z,98155.03
2023-05-16T11:25:08.078Z,98152.94
2023-05-16T11:27:44.705Z,98161.34
2023-05-16T11:30:17.930Z,98163.28
2023-05-16T11:32:47.408Z,98163.69
2023-05-16T11:35:17.153Z,98154.66
2023-05-16T11:37:48.084Z,98153.81
2023-05-16T11:40:17.391Z,98151.31
2023-05-16T11:42:47.878Z,98146.59
2023-05-16T11:45:17.320Z,98154.06
2023-05-16T11:47:50.566Z,98151.81
2023-05-16T11:50:20.304Z,98148.69
2023-05-16T11:52:49.415Z,98149.06
2023-05-16T11:55:32.498Z,98147.44
2023-05-16T11:58:09.863Z,98145.75
2023-05-16T12:00:39.208Z,98142.75
2023-05-16T12:03:06.853Z,98141.94
2023-05-16T12:05:35.817Z,98150.97
2023-05-16T12:08:05.758Z,98150.88
2023-05-16T12:10:36.700Z,98154.25
2023-05-16T12:13:04.376Z,98151.84
2023-05-16T12:15:33.515Z,98142.59
2023-05-16T12:18:01.258Z,98137.00
2023-05-16T12:20:29.389Z,98138.22
2023-05-16T12:22:58.148Z,98135.03
2023-05-16T12:25:35.739Z,98132.81
2023-05-16T12:28:07.979Z,98138.00
2023-05-16T12:30:35.647Z,98136.88
2023-05-16T12:33:07.827Z,98130.97
2023-05-16T12:35:37.726Z,98135.91
2023-05-16T12:38:05.973Z,98127.84
2023-05-16T12:40:33.522Z,98131.53
2023-05-16T12:43:01.582Z,98123.72
2023-05-16T12:45:30.147Z,98116.25
2023-05-16T12:47:58.672Z,98112.53
2023-05-16T12:50:29.122Z,98108.63
2023-05-16T12:53:00.152Z,98114.94
2023-05-16T12:55:28.524Z,98110.00
2023-05-16T12:57:58.514Z,98106.72
2023-05-16T13:00:27.847Z,98103.50
2023-05-16T13:02:56.127Z,98109.25
2023-05-16T13:05:24.378Z,98104.59
2023-05-16T13:07:52.032Z,98096.00
2023-05-16T13:10:20.271Z,98097.34
2023-05-16T13:12:47.754Z,98086.19
2023-05-16T13:15:17.287Z,98094.06
2023-05-16T13:17:45.428Z,98095.31
2023-05-16T13:20:15.249Z,98095.69
2023-05-16T13:22:44.119Z,98090.38
2023-05-16T13:25:12.383Z,98080.31
2023-05-16T13:27:43.046Z,98069.97
2023-05-16T13:30:12.689Z,98071.34
2023-05-16T13:32:40.396Z,98069.34
2023-05-16T13:35:08.697Z,98069.38
2023-05-16T13:37:36.332Z,98080.06
2023-05-16T13:40:05.311Z,98078.44
2023-05-16T13:42:34.587Z,98074.72
2023-05-16T13:45:02.368Z,98080.22
2023-05-16T13:47:30.275Z,98075.78
2023-05-16T13:49:58.636Z,98066.31
2023-05-16T13:52:26.353Z,98067.16
2023-05-16T13:54:54.919Z,98072.41
2023-05-16T13:57:23.320Z,98070.44
2023-05-16T14:02:22.891Z,98074.38
2023-05-16T14:04:50.557Z,98081.09
2023-05-16T14:07:17.694Z,98073.56
2023-05-16T14:09:45.586Z,98076.31
2023-05-16T14:12:13.382Z,98076.56
2023-05-16T14:14:41.641Z,98083.72
2023-05-16T14:17:08.976Z,98093.88
2023-05-16T14:19:37.490Z,98098.22
2023-05-16T14:22:05.028Z,98099.09
2023-05-16T14:24:33.923Z,98095.81
2023-05-16T14:27:01.946Z,98103.09
2023-05-16T14:29:30.048Z,98111.47
2023-05-16T14:31:58.043Z,98118.88
2023-05-16T14:34:26.682Z,98119.03
2023-05-16T14:36:58.529Z,98119.56
2023-05-16T14:39:27.351Z,98120.84
2023-05-16T14:41:55.365Z,98128.44
2023-05-16T14:44:25.043Z,98124.88
2023-05-16T14:46:52.445Z,98133.66
2023-05-16T14:49:21.189Z,98139.53
2023-05-16T14:51:50.644Z,98142.66
2023-05-16T14:54:19.248Z,98144.09
2023-05-16T14:56:46.670Z,98144.38
2023-05-16T14:59:14.620Z,98152.88
2023-05-16T15:01:42.121Z,98150.63
2023-05-16T15:04:10.171Z,98145.06
2023-05-16T15:06:37.713Z,98149.22
2023-05-16T15:09:05.927Z,98142.66
2023-05-16T15:11:33.288Z,98135.25
2023-05-16T15:14:01.986Z,98131.66
2023-05-16T15:16:30.472Z,98113.31
2023-05-16T15:18:59.020Z,98112.69
2023-05-16T15:21:27.540Z,98119.28
2023-05-16T15:23:58.022Z,98110.31
2023-05-16T15:26:25.438Z,98124.53
2023-05-16T15:28:55.711Z,98119.09
2023-05-16T15:31:23.164Z,98126.72
2023-05-16T15:33:50.895Z,98121.75
2023-05-16T15:36:18.402Z,98125.84
2023-05-16T15:38:47.622Z,98125.72
2023-05-16T15:41:36.805Z,98129.56
2023-05-16T15:44:03.889Z,98120.97
2023-05-16T15:46:33.352Z,98122.47
2023-05-16T15:49:01.188Z,98136.72
2023-05-16T15:51:28.650Z,98132.88
2023-05-16T15:53:56.589Z,98130.88
2023-05-16T15:56:23.750Z,98121.63
2023-05-16T15:58:51.426Z,98122.09
2023-05-16T16:01:19.060Z,98134.94
2023-05-16T16:03:48.433Z,98121.03
2023-05-16T16:06:15.801Z,98119.34
2023-05-16T16:08:43.437Z,98106.44
2023-05-16T16:11:10.750Z,98103.28
2023-05-16T16:13:39.139Z,98106.41
2023-05-16T16:16:06.941Z,98119.53
2023-05-16T16:18:34.954Z,98124.97
2023-05-16T16:21:02.951Z,98122.63
2023-05-16T16:23:34.499Z,98113.56
2023-05-16T16:26:05.040Z,98107.44
2023-05-16T16:28:33.192Z,98109.56
2023-05-16T16:31:00.937Z,98113.03
2023-05-16T16:33:29.151Z,98112.38
2023-05-16T16:35:57.001Z,98112.03
2023-05-16T16:38:24.556Z,98126.44
2023-05-16T16:40:51.833Z,98121.16
2023-05-16T16:43:19.402Z,98115.31
2023-05-16T16:45:46.706Z,98113.63
2023-05-16T16:48:15.933Z,98118.56
2023-05-16T16:50:43.863Z,98111.44
2023-05-16T16:53:14.630Z,98124.53
2023-05-16T16:55:41.967Z,98120.25
2023-05-16T16:58:09.776Z,98131.41
2023-05-16T17:00:36.916Z,98125.44
2023-05-16T17:03:08.030Z,98117.19
2023-05-16T17:05:36.107Z,98123.13
2023-05-16T17:08:04.264Z,98116.19
2023-05-16T17:11:44.968Z,98124.06
2023-05-16T17:14:18.300Z,98130.47
2023-05-16T17:16:46.194Z,98135.47
2023-05-16T17:19:14.516Z,98147.66
2023-05-16T17:21:43.777Z,98153.53
2023-05-16T17:24:11.442Z,98156.03
2023-05-16T17:26:39.342Z,98155.44
2023-05-16T17:29:07.056Z,98149.22
2023-05-16T17:31:34.578Z,98149.44
2023-05-16T17:34:02.432Z,98155.09
2023-05-16T17:36:29.667Z,98159.97
2023-05-16T17:38:58.854Z,98157.75
2023-05-16T17:41:26.447Z,98159.69
2023-05-16T17:43:54.676Z,98175.47
2023-05-16T17:46:21.924Z,98174.88
2023-05-16T17:48:50.246Z,98169.44
2023-05-16T17:51:18.357Z,98179.22
2023-05-16T17:53:46.196Z,98175.91
2023-05-16T17:56:14.125Z,98181.56
2023-05-16T17:58:42.671Z,98193.78
2023-05-16T18:01:10.460Z,98204.19
2023-05-16T18:03:38.733Z,98202.91
2023-05-16T18:06:07.267Z,98208.53
2023-05-16T18:08:35.271Z,98208.53
2023-05-16T18:11:02.749Z,98208.50
2023-05-16T18:13:31.131Z,98202.91
2023-05-16T18:15:58.453Z,98201.81
2023-05-16T18:18:27.389Z,98200.25
2023-05-16T18:20:54.627Z,98195.19
2023-05-16T18:23:22.393Z,98202.19
2023-05-16T18:25:49.515Z,98202.47
2023-05-16T18:28:16.948Z,98214.66
2023-05-16T18:30:44.391Z,98221.59
2023-05-16T18:33:12.557Z,98223.84
2023-05-16T18:35:39.732Z,98235.28
2023-05-16T18:38:09.130Z,98237.66
2023-05-16T18:40:41.683Z,98239.31
2023-05-16T18:43:09.090Z,98222.06
2023-05-16T18:45:36.213Z,98222.31
2023-05-16T18:48:04.032Z,98230.81
2023-05-16T18:50:31.626Z,98247.88
2023-05-16T18:52:59.117Z,98242.19
2023-05-16T18:55:26.739Z,98238.47
2023-05-16T18:57:54.623Z,98243.84
2023-05-16T19:00:21.734Z,98246.22
2023-05-16T19:02:49.648Z,98245.13
2023-05-16T19:05:17.467Z,98250.00
2023-05-16T19:07:45.274Z,98260.25
2023-05-16T19:10:12.560Z,98267.59
2023-05-16T19:12:40.498Z,98260.97
2023-05-16T19:15:09.299Z,98266.09
2023-05-16T19:17:37.526Z,98270.41
2023-05-16T19:20:05.869Z,98265.41
2023-05-16T19:22:33.353Z,98266.81
2023-05-16T19:25:00.826Z,98264.34
2023-05-16T19:27:31.277Z,98247.41
2023-05-16T19:29:58.387Z,98253.78
2023-05-16T19:32:26.086Z,98256.69
2023-05-16T19:34:59.073Z,98244.91
2023-05-16T19:37:26.701Z,98265.69
2023-05-16T19:39:53.875Z,98269.03
2023-05-16T19:42:21.294Z,98270.56
2023-05-16T19:44:50.398Z,98263.63
2023-05-16T19:47:17.950Z,98246.59
2023-05-16T19:49:45.436Z,98247.25
2023-05-16T19:52:13.489Z,98237.44
2023-05-16T19:54:41.620Z,98233.81
2023-05-16T19:57:09.068Z,98227.69
2023-05-16T19:59:36.062Z,98227.84
2023-05-16T20:02:04.640Z,98234.06
2023-05-16T20:04:32.088Z,98233.34
2023-05-16T20:06:59.377Z,98251.81
2023-05-16T20:09:28.536Z,98250.16
2023-05-16T20:11:57.772Z,98249.91
2023-05-16T20:14:24.924Z,98251.53
2023-05-16T20:16:53.056Z,98247.38
2023-05-16T20:19:20.559Z,98256.66
2023-05-16T20:21:47.889Z,98256.25
2023-05-16T20:24:15.517Z,98240.59
2023-05-16T20:26:43.402Z,98237.44
2023-05-16T20:29:11.115Z,98234.78
2023-05-16T20:31:38.557Z,98225.78
2023-05-16T20:34:05.818Z,98212.47
2023-05-16T20:36:33.166Z,98207.19
2023-05-16T20:39:05.032Z,98209.44
2023-05-16T20:41:32.271Z,98202.09
2023-05-16T20:43:59.389Z,98198.59
2023-05-16T20:46:26.992Z,98195.44
2023-05-16T20:48:54.170Z,98196.81
2023-05-16T20:51:24.636Z,98192.53
2023-05-16T20:53:52.105Z,98196.66
2023-05-16T20:56:19.351Z,98188.91
2023-05-16T20:58:46.799Z,98193.34
2023-05-16T21:01:14.053Z,98198.06
2023-05-16T21:03:41.362Z,98195.41
2023-05-16T21:06:08.930Z,98189.75
2023-05-16T21:08:36.185Z,98198.34
2023-05-16T21:11:03.706Z,98194.19
2023-05-16T21:13:31.418Z,98189.75
2023-05-16T21:15:58.718Z,98191.28
2023-05-16T21:18:26.647Z,98194.06
2023-05-16T21:20:54.307Z,98189.47
2023-05-16T21:23:21.317Z,98203.91
2023-05-16T21:25:48.652Z,98221.63
2023-05-16T21:28:15.844Z,98219.53
2023-05-16T21:30:43.046Z,98220.38
2023-05-16T21:33:10.540Z,98200.69
2023-05-16T21:35:37.975Z,98184.75
2023-05-16T21:38:05.164Z,98178.09
2023-05-16T21:40:32.462Z,98175.34
2023-05-16T21:42:59.574Z,98181.16
2023-05-16T21:45:27.174Z,98173.00
2023-05-16T21:47:54.534Z,98178.66
2023-05-16T21:50:21.864Z,98185.19
2023-05-16T21:52:49.080Z,98177.28
2023-05-16T21:55:16.404Z,98175.06
2023-05-16T21:57:43.490Z,98193.75
2023-05-16T22:00:11.753Z,98198.59
2023-05-16T22:02:38.999Z,98182.81
2023-05-16T22:05:07.226Z,98189.75
2023-05-16T22:07:34.652Z,98188.91
2023-05-16T22:10:02.579Z,98171.88
2023-05-16T22:12:29.622Z,98154.53
2023-05-16T22:14:57.590Z,98187.94
2023-05-16T22:17:24.690Z,98191.53
2023-05-16T22:19:52.060Z,98200.84
2023-05-16T22:22:20.224Z,98179.63
2023-05-16T22:24:47.734Z,98178.53
2023-05-16T22:27:14.672Z,98193.09
2023-05-16T22:29:42.119Z,98204.28
2023-05-16T22:32:09.872Z,98212.47
2023-05-16T22:34:40.773Z,98218.72
2023-05-16T22:37:11.253Z,98202.19
2023-05-16T22:39:38.584Z,98196.97
2023-05-16T22:42:06.652Z,98209.41
2023-05-16T22:44:33.965Z,98210.81
2023-05-16T22:47:00.983Z,98198.03
2023-05-16T22:49:28.301Z,98188.28
2023-05-16T22:51:55.350Z,98201.88
2023-05-16T22:54:22.655Z,98195.78
2023-05-16T22:56:49.575Z,98208.81
2023-05-16T22:59:17.416Z,98219.28
2023-05-16T23:01:44.876Z,98220.44
2023-05-16T23:04:12.195Z,98223.97
2023-05-16T23:06:39.374Z,98216.19
2023-05-16T23:09:06.683Z,98217.66
2023-05-16T23:11:33.718Z,98212.88
2023-05-16T23:14:01.488Z,98203.03
2023-05-16T23:16:28.750Z,98218.84
2023-05-16T23:18:56.192Z,98220.63
2023-05-16T23:21:23.415Z,98221.34
2023-05-16T23:23:50.642Z,98214.69
2023-05-16T23:26:17.612Z,98219.41
2023-05-16T23:28:45.299Z,98216.59
2023-05-16T23:31:12.330Z,98217.88
2023-05-16T23:33:39.680Z,98217.47
2023-05-16T23:36:07.180Z,98227.56
2023-05-16T23:38:34.451Z,98218.72
2023-05-16T23:41:01.481Z,98217.75
2023-05-16T23:43:29.138Z,98223.97
2023-05-16T23:45:56.254Z,98224.94
2023-05-16T23:48:23.736Z,98235.19
2023-05-16T23:50:51.700Z,98234.63
2023-05-16T23:53:19.092Z,98238.28
2023-05-16T23:55:46.443Z,98234.56
2023-05-16T23:58:14.008Z,98228.81
